John Glenn — NJHG — position and weather

sailwx.info

Track history (hours):
 
Tides and Currents Weather Stations Pressure Air Temp Water Temp Dewpoint Dewpoint Depression Visibility Wind Speed Wind Dir Waves Ship Positions

John Glenn

Last reported at 2018-Apr-11 17:02 UTC. Time now 2018-Jun-21 19:49 UTC.
Position N 34°56' E 129°22'.
Warning: this ship's position is months out of date.

Length 240 m; draft 10 m.

Type: Military. MMSI: 369463000.

Date/timePositionNaut miles runAvg speedWind from/ knotsBaromVisibWave heightAir tempDewpointWater temp
2018-Apr-11 17:02N 34°56' E 129°22'5 8.9
2018-Apr-11 16:26N 35°00' E 129°26'9 8.2
2018-Apr-11 15:22N 35°07' E 129°32'3 7.7
2018-Apr-11 14:59N 35°10' E 129°34'5 7.7
2018-Apr-11 14:22N 35°14' E 129°37'4 6.5
2018-Apr-11 13:44N 35°17' E 129°41'3 7.2
2018-Apr-11 13:15N 35°20' E 129°42'2 7.7
2018-Apr-11 12:59N 35°22' E 129°43'5 7.7
2018-Apr-11 12:19N 35°27' E 129°43'3 7.8
2018-Apr-11 11:57N 35°30' E 129°44'3 7.7
2018-Apr-11 11:30N 35°33' E 129°44'4 7.6
2018-Apr-11 10:58N 35°37' E 129°46'4 7.7
2018-Apr-11 10:29N 35°40' E 129°48'  
Track history (hours):
 
Tides and Currents Weather Stations Pressure Air Temp Water Temp Dewpoint Dewpoint Depression Visibility Wind Speed Wind Dir Waves Ship Positions

John Glenn

Last reported at 2018-Apr-11 17:02 UTC. Time now 2018-Jun-21 19:49 UTC.
Position N 34°56' E 129°22'.
Warning: this ship's position is months out of date.

Length 240 m; draft 10 m.

Type: Military. MMSI: 369463000.

Date/timePositionNaut miles runAvg speedWind from/ knotsBaromVisibWave heightAir tempDewpointWater temp
2018-Apr-11 17:02N 34°56' E 129°22'5 8.9
2018-Apr-11 16:26N 35°00' E 129°26'9 8.2
2018-Apr-11 15:22N 35°07' E 129°32'3 7.7
2018-Apr-11 14:59N 35°10' E 129°34'5 7.7
2018-Apr-11 14:22N 35°14' E 129°37'4 6.5
2018-Apr-11 13:44N 35°17' E 129°41'3 7.2
2018-Apr-11 13:15N 35°20' E 129°42'2 7.7
2018-Apr-11 12:59N 35°22' E 129°43'5 7.7
2018-Apr-11 12:19N 35°27' E 129°43'3 7.8
2018-Apr-11 11:57N 35°30' E 129°44'3 7.7
2018-Apr-11 11:30N 35°33' E 129°44'4 7.6
2018-Apr-11 10:58N 35°37' E 129°46'4 7.7
2018-Apr-11 10:29N 35°40' E 129°48'  

Dump ship's entire track history